Bader, Illinois
Current Conditions -  °F | °C
As of 1:15 AM on Saturday 20 Dec 2014 (Local Time) from KIJX Reporting Station
Overcast Overcast  
Wind Chill: 33°   Ceiling: 4800
Heat Index: 33°   Visibility: 7mi
Dew Point: 28°   Wind: 3mph
Humidity: 81%   Direction: 150°SSE
Pressure: 30.26"   Gusts: NA
Location:  40.1574°N, 90.35°W
Report Text: KIJX 200715Z AUTO 15003KT 7SM OVC048 01/M02 A3026 RMK AO2 T00081021
Loading
Personal Weather Stations






























Interactive Weather Map New forecast layout! Learn more

10-Day Weather Forecast

Advertisements
Track Severe Weather on mobile